Time,TemperatureF,DewpointF,PressureIn,WindDirection,WindDirectionDegrees,WindSpeedMPH,WindSpeedGustMPH,Humidity,HourlyPrecipIn,Conditions,Clouds,dailyrainin,SoftwareType,DateUTC
2013-04-15 00:00:00,51.0,45.4,29.71,East,92,1.0,5.0,81,0.00,,---,0.00,VWS V14.01,2013-04-15 04:00:00,
2013-04-15 00:05:00,50.9,45.3,29.71,SE,126,3.0,7.0,81,0.00,,---,0.00,VWS V14.01,2013-04-15 04:05:00,
2013-04-15 00:10:00,50.8,45.2,29.71,ESE,109,4.0,5.0,81,0.00,,---,0.00,VWS V14.01,2013-04-15 04:10:00,
2013-04-15 00:15:00,50.8,45.2,29.71,East,82,1.0,2.0,81,0.00,,---,0.00,VWS V14.01,2013-04-15 04:15:00,
2013-04-15 00:20:00,50.6,45.0,29.71,East,91,3.0,4.0,81,0.00,,---,0.00,VWS V14.01,2013-04-15 04:20:00,
2013-04-15 00:25:00,50.5,44.9,29.71,ESE,105,0.0,6.0,81,0.00,,---,0.00,VWS V14.01,2013-04-15 04:25:00,
2013-04-15 00:30:00,50.5,44.9,29.71,East,80,3.0,5.0,81,0.00,,---,0.00,VWS V14.01,2013-04-15 04:30:00,
2013-04-15 00:35:00,50.4,44.8,29.70,East,99,4.0,6.0,81,0.00,,---,0.00,VWS V14.01,2013-04-15 04:35:00,
2013-04-15 00:40:00,50.3,44.7,29.70,SE,129,4.0,4.0,81,0.00,,---,0.00,VWS V14.01,2013-04-15 04:40:00,
2013-04-15 00:45:00,50.2,44.9,29.70,ESE,117,1.0,4.0,82,0.00,,---,0.00,VWS V14.01,2013-04-15 04:45:00,
2013-04-15 00:50:00,50.1,44.8,29.70,ESE,103,0.0,7.0,82,0.00,,---,0.00,VWS V14.01,2013-04-15 04:50:00,
2013-04-15 00:55:00,50.1,44.8,29.70,ESE,105,1.0,5.0,82,0.00,,---,0.00,VWS V14.01,2013-04-15 04:55:00,
2013-04-15 01:00:00,50.1,44.8,29.70,ENE,69,1.0,3.0,82,0.00,,---,0.00,VWS V14.01,2013-04-15 05:00:00,
2013-04-15 01:05:00,50.1,44.8,29.70,ESE,113,5.0,5.0,82,0.00,,---,0.00,VWS V14.01,2013-04-15 05:05:00,
2013-04-15 01:10:00,50.1,44.8,29.70,East,97,1.0,2.0,82,0.00,,---,0.00,VWS V14.01,2013-04-15 05:10:00,
2013-04-15 01:15:00,50.1,44.8,29.70,East,96,2.0,4.0,82,0.00,,---,0.00,VWS V14.01,2013-04-15 05:15:00,
2013-04-15 01:20:00,50.2,44.9,29.70,ESE,106,0.0,3.0,82,0.00,,---,0.00,VWS V14.01,2013-04-15 05:20:00,
2013-04-15 01:25:00,50.3,45.0,29.70,ENE,68,1.0,3.0,82,0.00,,---,0.00,VWS V14.01,2013-04-15 05:25:00,
2013-04-15 01:30:00,50.4,44.8,29.70,East,84,1.0,1.0,81,0.00,,---,0.00,VWS V14.01,2013-04-15 05:30:00,
2013-04-15 01:35:00,50.4,44.8,29.70,East,87,0.0,0.0,81,0.00,,---,0.00,VWS V14.01,2013-04-15 05:35:00,
2013-04-15 01:40:00,50.4,44.8,29.70,East,92,0.0,1.0,81,0.00,,---,0.00,VWS V14.01,2013-04-15 05:40:00,
2013-04-15 01:45:00,50.5,44.9,29.70,ESE,120,3.0,7.0,81,0.00,,---,0.00,VWS V14.01,2013-04-15 05:45:00,
2013-04-15 01:50:00,51.0,45.1,29.70,ESE,116,1.0,4.0,80,0.00,,---,0.00,VWS V14.01,2013-04-15 05:50:00,
2013-04-15 01:55:00,51.1,45.2,29.70,East,92,0.0,1.0,80,0.00,,---,0.00,VWS V14.01,2013-04-15 05:55:00,
2013-04-15 02:00:00,51.0,45.1,29.70,ENE,78,0.0,1.0,80,0.00,,---,0.00,VWS V14.01,2013-04-15 06:00:00,
2013-04-15 02:05:00,50.9,45.0,29.70,East,97,0.0,1.0,80,0.00,,---,0.00,VWS V14.01,2013-04-15 06:05:00,
2013-04-15 02:10:00,50.9,45.0,29.70,ENE,77,0.0,4.0,80,0.00,,---,0.00,VWS V14.01,2013-04-15 06:10:00,
2013-04-15 02:15:00,51.0,45.1,29.70,East,85,0.0,1.0,80,0.00,,---,0.00,VWS V14.01,2013-04-15 06:15:00,
2013-04-15 02:20:00,50.9,45.0,29.70,East,86,0.0,1.0,80,0.00,,---,0.00,VWS V14.01,2013-04-15 06:20:00,
2013-04-15 02:25:00,51.0,45.1,29.70,ESE,103,0.0,1.0,80,0.00,,---,0.00,VWS V14.01,2013-04-15 06:25:00,
2013-04-15 02:30:00,50.9,45.0,29.70,East,97,1.0,2.0,80,0.00,,---,0.00,VWS V14.01,2013-04-15 06:30:00,
2013-04-15 02:35:00,50.9,45.0,29.69,East,83,0.0,2.0,80,0.00,,---,0.00,VWS V14.01,2013-04-15 06:35:00,
2013-04-15 02:40:00,51.0,45.1,29.69,East,84,0.0,0.0,80,0.00,,---,0.00,VWS V14.01,2013-04-15 06:40:00,
2013-04-15 02:45:00,50.8,44.9,29.69,East,84,0.0,0.0,80,0.00,,---,0.00,VWS V14.01,2013-04-15 06:45:00,
2013-04-15 02:50:00,50.7,44.8,29.70,East,89,0.0,0.0,80,0.00,,---,0.00,VWS V14.01,2013-04-15 06:50:00,
2013-04-15 02:55:00,50.7,45.1,29.70,East,90,0.0,1.0,81,0.00,,---,0.00,VWS V14.01,2013-04-15 06:55:00,
2013-04-15 03:00:00,50.5,44.9,29.70,East,90,0.0,0.0,81,0.00,,---,0.00,VWS V14.01,2013-04-15 07:00:00,
2013-04-15 03:05:00,50.5,44.9,29.71,East,90,0.0,0.0,81,0.00,,---,0.00,VWS V14.01,2013-04-15 07:05:00,
2013-04-15 03:41:00,50.1,44.8,29.73,East,90,0.0,0.0,82,0.00,,---,0.00,VWS V14.01,2013-04-15 07:41:00,
2013-04-15 03:46:00,50.2,45.2,29.73,East,90,0.0,0.0,83,0.00,,---,0.00,VWS V14.01,2013-04-15 07:46:00,
2013-04-15 03:48:00,50.2,45.2,29.73,East,90,0.0,0.0,83,0.00,,---,0.00,VWS V14.01,2013-04-15 07:48:00,
2013-04-15 03:50:00,50.2,45.2,29.73,East,90,0.0,0.0,83,0.00,,---,0.00,VWS V14.01,2013-04-15 07:50:00,
2013-04-15 03:55:00,50.7,45.7,29.73,East,94,0.0,0.0,83,0.00,,---,0.00,VWS V14.01,2013-04-15 07:55:00,
2013-04-15 04:00:00,50.9,45.6,29.73,East,94,0.0,0.0,82,0.00,,---,0.00,VWS V14.01,2013-04-15 08:00:00,
2013-04-15 04:05:00,50.8,45.5,29.74,East,94,0.0,0.0,82,0.00,,---,0.00,VWS V14.01,2013-04-15 08:05:00,
2013-04-15 04:10:00,50.7,45.7,29.74,East,94,0.0,0.0,83,0.00,,---,0.00,VWS V14.01,2013-04-15 08:10:00,
2013-04-15 04:15:00,50.8,45.5,29.74,East,94,0.0,0.0,82,0.00,,---,0.00,VWS V14.01,2013-04-15 08:15:00,
2013-04-15 04:20:00,50.6,45.6,29.74,East,94,0.0,0.0,83,0.00,,---,0.00,VWS V14.01,2013-04-15 08:20:00,
2013-04-15 04:25:00,50.5,45.5,29.74,East,94,0.0,0.0,83,0.00,,---,0.00,VWS V14.01,2013-04-15 08:25:00,
2013-04-15 04:30:00,50.5,45.5,29.74,East,94,0.0,0.0,83,0.00,,---,0.00,VWS V14.01,2013-04-15 08:30:00,
2013-04-15 04:35:00,50.4,45.8,29.75,East,94,0.0,0.0,84,0.00,,---,0.00,VWS V14.01,2013-04-15 08:35:00,
2013-04-15 04:40:00,50.5,45.5,29.75,East,94,0.0,0.0,83,0.00,,---,0.00,VWS V14.01,2013-04-15 08:40:00,
2013-04-15 04:45:00,50.5,45.8,29.75,East,94,0.0,0.0,84,0.00,,---,0.00,VWS V14.01,2013-04-15 08:45:00,
2013-04-15 04:50:00,50.5,45.8,29.75,East,94,0.0,0.0,84,0.00,,---,0.00,VWS V14.01,2013-04-15 08:50:00,
2013-04-15 04:55:00,50.6,45.6,29.75,East,94,0.0,0.0,83,0.00,,---,0.00,VWS V14.01,2013-04-15 08:55:00,
2013-04-15 05:00:00,50.8,45.8,29.75,East,94,0.0,0.0,83,0.00,,---,0.00,VWS V14.01,2013-04-15 09:00:00,
2013-04-15 05:05:00,50.8,45.8,29.75,East,94,0.0,0.0,83,0.00,,---,0.00,VWS V14.01,2013-04-15 09:05:00,
2013-04-15 05:10:00,51.0,46.0,29.75,East,94,0.0,0.0,83,0.00,,---,0.00,VWS V14.01,2013-04-15 09:10:00,
2013-04-15 05:15:00,51.1,46.1,29.75,East,94,0.0,0.0,83,0.00,,---,0.00,VWS V14.01,2013-04-15 09:15:00,
2013-04-15 05:20:00,51.2,45.9,29.74,East,94,0.0,0.0,82,0.00,,---,0.00,VWS V14.01,2013-04-15 09:20:00,
2013-04-15 05:25:00,51.2,46.2,29.74,East,94,0.0,0.0,83,0.00,,---,0.00,VWS V14.01,2013-04-15 09:25:00,
2013-04-15 05:30:00,51.4,46.1,29.74,East,94,0.0,0.0,82,0.00,,---,0.00,VWS V14.01,2013-04-15 09:30:00,
2013-04-15 05:35:00,51.5,46.2,29.74,East,94,0.0,0.0,82,0.00,,---,0.00,VWS V14.01,2013-04-15 09:35:00,
2013-04-15 05:40:00,51.5,46.2,29.74,East,94,0.0,0.0,82,0.00,,---,0.00,VWS V14.01,2013-04-15 09:40:00,
2013-04-15 05:45:00,51.6,46.3,29.74,East,94,0.0,1.0,82,0.00,,---,0.00,VWS V14.01,2013-04-15 09:45:00,
2013-04-15 05:50:00,51.9,46.6,29.74,East,94,0.0,0.0,82,0.00,,---,0.00,VWS V14.01,2013-04-15 09:50:00,
2013-04-15 05:55:00,52.4,47.1,29.74,East,94,0.0,0.0,82,0.00,,---,0.00,VWS V14.01,2013-04-15 09:55:00,
2013-04-15 06:00:00,52.5,46.8,29.74,East,94,0.0,0.0,81,0.00,,---,0.00,VWS V14.01,2013-04-15 10:00:00,
2013-04-15 06:05:00,52.9,47.2,29.73,East,94,0.0,0.0,81,0.00,,---,0.00,VWS V14.01,2013-04-15 10:05:00,
2013-04-15 06:10:00,53.4,47.4,29.73,East,94,0.0,1.0,80,0.00,,---,0.00,VWS V14.01,2013-04-15 10:10:00,
2013-04-15 06:15:00,53.8,47.8,29.73,East,98,0.0,0.0,80,0.00,,---,0.00,VWS V14.01,2013-04-15 10:15:00,
2013-04-15 06:20:00,53.9,47.9,29.73,East,98,0.0,0.0,80,0.00,,---,0.00,VWS V14.01,2013-04-15 10:20:00,
2013-04-15 06:25:00,53.9,47.9,29.73,East,98,0.0,0.0,80,0.00,,---,0.00,VWS V14.01,2013-04-15 10:25:00,
2013-04-15 06:30:00,53.9,47.9,29.73,East,98,0.0,0.0,80,0.00,,---,0.00,VWS V14.01,2013-04-15 10:30:00,
2013-04-15 06:35:00,54.2,47.8,29.71,ESE,117,1.0,3.0,79,0.00,,---,0.00,VWS V14.01,2013-04-15 10:35:00,
2013-04-15 06:40:00,54.2,47.8,29.71,ESE,109,0.0,1.0,79,0.00,,---,0.00,VWS V14.01,2013-04-15 10:40:00,
2013-04-15 06:45:00,54.3,47.9,29.71,ESE,115,1.0,2.0,79,0.00,,---,0.00,VWS V14.01,2013-04-15 10:45:00,
2013-04-15 06:50:00,54.5,48.1,29.71,ESE,112,0.0,0.0,79,0.00,,---,0.00,VWS V14.01,2013-04-15 10:50:00,
2013-04-15 06:55:00,54.4,48.0,29.71,ESE,112,0.0,1.0,79,0.00,,---,0.00,VWS V14.01,2013-04-15 10:55:00,
2013-04-15 07:00:00,54.6,48.2,29.71,ESE,112,0.0,0.0,79,0.00,,---,0.00,VWS V14.01,2013-04-15 11:00:00,
2013-04-15 07:05:00,54.9,48.2,29.72,ESE,117,0.0,1.0,78,0.00,,---,0.00,VWS V14.01,2013-04-15 11:05:00,
2013-04-15 07:10:00,54.9,48.2,29.72,ESE,117,0.0,0.0,78,0.00,,---,0.00,VWS V14.01,2013-04-15 11:10:00,
2013-04-15 07:15:00,55.0,48.3,29.72,East,101,0.0,1.0,78,0.00,,---,0.00,VWS V14.01,2013-04-15 11:15:00,
2013-04-15 07:20:00,54.8,48.1,29.73,East,101,0.0,0.0,78,0.00,,---,0.00,VWS V14.01,2013-04-15 11:20:00,
2013-04-15 07:25:00,54.6,48.2,29.73,ESE,102,0.0,1.0,79,0.00,,---,0.00,VWS V14.01,2013-04-15 11:25:00,
2013-04-15 07:30:00,54.5,48.1,29.73,ESE,102,0.0,0.0,79,0.00,,---,0.00,VWS V14.01,2013-04-15 11:30:00,
2013-04-15 07:35:00,54.3,47.9,29.75,ESE,102,0.0,0.0,79,0.00,,---,0.00,VWS V14.01,2013-04-15 11:35:00,
2013-04-15 07:40:00,54.2,48.2,29.75,SSE,150,0.0,1.0,80,0.00,,---,0.00,VWS V14.01,2013-04-15 11:40:00,
2013-04-15 07:45:00,54.1,48.1,29.75,SSE,150,0.0,0.0,80,0.00,,---,0.00,VWS V14.01,2013-04-15 11:45:00,
2013-04-15 07:50:00,53.9,47.9,29.75,SSE,150,0.0,0.0,80,0.00,,---,0.00,VWS V14.01,2013-04-15 11:50:00,
2013-04-15 07:55:00,54.1,48.1,29.75,SSE,150,0.0,0.0,80,0.00,,---,0.00,VWS V14.01,2013-04-15 11:55:00,
2013-04-15 08:00:00,54.0,48.3,29.75,SSE,150,0.0,0.0,81,0.00,,---,0.00,VWS V14.01,2013-04-15 12:00:00,
2013-04-15 08:06:00,54.2,48.5,29.76,SSE,163,0.0,0.0,81,0.00,,---,0.00,VWS V14.01,2013-04-15 12:06:00,
2013-04-15 08:11:00,54.6,48.6,29.76,SSE,163,0.0,0.0,80,0.00,,---,0.00,VWS V14.01,2013-04-15 12:11:00,
2013-04-15 08:16:00,55.1,49.0,29.76,SSE,163,0.0,0.0,80,0.00,,---,0.00,VWS V14.01,2013-04-15 12:16:00,
2013-04-15 08:21:00,55.2,48.8,29.76,SSE,163,0.0,1.0,79,0.00,,---,0.00,VWS V14.01,2013-04-15 12:21:00,
2013-04-15 08:25:00,55.5,48.8,29.76,SSE,163,0.0,1.0,78,0.00,,---,0.00,VWS V14.01,2013-04-15 12:25:00,
2013-04-15 08:31:00,55.5,49.1,29.76,SW,214,1.0,3.0,79,0.00,,---,0.00,VWS V14.01,2013-04-15 12:31:00,
2013-04-15 08:36:00,55.7,49.0,29.76,SW,214,0.0,0.0,78,0.00,,---,0.00,VWS V14.01,2013-04-15 12:36:00,
2013-04-15 08:41:00,55.6,49.2,29.76,SW,214,0.0,0.0,79,0.00,,---,0.00,VWS V14.01,2013-04-15 12:41:00,
2013-04-15 08:46:00,55.8,49.0,29.76,SW,214,0.0,1.0,78,0.00,,---,0.00,VWS V14.01,2013-04-15 12:46:00,
2013-04-15 08:51:00,56.0,49.2,29.77,SW,214,0.0,1.0,78,0.00,,---,0.00,VWS V14.01,2013-04-15 12:51:00,
2013-04-15 08:56:00,56.1,49.3,29.77,SSW,213,0.0,0.0,78,0.00,,---,0.00,VWS V14.01,2013-04-15 12:56:00,
2013-04-15 09:01:00,56.6,49.5,29.77,SE,141,0.0,1.0,77,0.00,,---,0.00,VWS V14.01,2013-04-15 13:01:00,
2013-04-15 09:06:00,57.2,49.7,29.77,SE,138,0.0,3.0,76,0.00,,---,0.00,VWS V14.01,2013-04-15 13:06:00,
2013-04-15 09:11:00,57.7,49.8,29.77,SE,129,0.0,2.0,75,0.00,,---,0.00,VWS V14.01,2013-04-15 13:11:00,
2013-04-15 09:16:00,57.8,49.9,29.77,SE,129,0.0,4.0,75,0.00,,---,0.00,VWS V14.01,2013-04-15 13:16:00,
2013-04-15 09:21:00,57.7,49.8,29.77,SW,222,0.0,3.0,75,0.00,,---,0.00,VWS V14.01,2013-04-15 13:21:00,
2013-04-15 09:26:00,57.7,49.8,29.77,SSE,159,1.0,3.0,75,0.00,,---,0.00,VWS V14.01,2013-04-15 13:26:00,
2013-04-15 09:32:00,57.9,50.0,29.77,SE,137,0.0,2.0,75,0.00,,---,0.00,VWS V14.01,2013-04-15 13:32:00,
2013-04-15 09:37:00,58.1,50.2,29.76,SSW,192,0.0,2.0,75,0.00,,---,0.00,VWS V14.01,2013-04-15 13:37:00,
2013-04-15 09:42:00,58.3,50.4,29.76,SE,130,1.0,4.0,75,0.00,,---,0.00,VWS V14.01,2013-04-15 13:42:00,
2013-04-15 09:47:00,58.1,50.2,29.76,SE,144,0.0,2.0,75,0.00,,---,0.00,VWS V14.01,2013-04-15 13:47:00,
2013-04-15 09:52:00,58.4,50.5,29.76,SE,137,0.0,4.0,75,0.00,,---,0.00,VWS V14.01,2013-04-15 13:52:00,
2013-04-15 09:57:00,58.4,50.5,29.76,ENE,78,0.0,4.0,75,0.00,,---,0.00,VWS V14.01,2013-04-15 13:57:00,
2013-04-15 10:02:00,58.3,50.4,29.76,SE,131,0.0,2.0,75,0.00,,---,0.00,VWS V14.01,2013-04-15 14:02:00,
2013-04-15 10:07:00,58.1,50.6,29.76,SW,225,4.0,4.0,76,0.00,,---,0.00,VWS V14.01,2013-04-15 14:07:00,
2013-04-15 10:12:00,58.1,50.6,29.76,SSW,213,0.0,2.0,76,0.00,,---,0.00,VWS V14.01,2013-04-15 14:12:00,
2013-04-15 10:17:00,58.2,50.7,29.76,SSW,205,0.0,4.0,76,0.00,,---,0.00,VWS V14.01,2013-04-15 14:17:00,
2013-04-15 10:22:00,58.2,50.7,29.76,SSE,162,0.0,6.0,76,0.00,,---,0.00,VWS V14.01,2013-04-15 14:22:00,
2013-04-15 10:27:00,58.3,50.8,29.76,SSE,156,0.0,1.0,76,0.00,,---,0.00,VWS V14.01,2013-04-15 14:27:00,
2013-04-15 10:32:00,58.5,51.0,29.76,SSE,148,0.0,10.0,76,0.00,,---,0.00,VWS V14.01,2013-04-15 14:32:00,
2013-04-15 10:37:00,58.8,51.3,29.77,ESE,113,0.0,3.0,76,0.00,,---,0.00,VWS V14.01,2013-04-15 14:37:00,
2013-04-15 10:42:00,59.1,51.5,29.77,SSE,154,0.0,3.0,76,0.00,,---,0.00,VWS V14.01,2013-04-15 14:42:00,
2013-04-15 10:47:00,59.3,51.8,29.77,SSW,198,0.0,3.0,76,0.00,,---,0.00,VWS V14.01,2013-04-15 14:47:00,
2013-04-15 10:53:00,59.5,51.9,29.76,South,189,0.0,3.0,76,0.00,,---,0.00,VWS V14.01,2013-04-15 14:53:00,
2013-04-15 10:58:00,59.6,52.0,29.76,WSW,243,4.0,6.0,76,0.00,,---,0.00,VWS V14.01,2013-04-15 14:58:00,
2013-04-15 11:03:00,59.9,52.0,29.75,SSE,151,0.0,3.0,75,0.00,,---,0.00,VWS V14.01,2013-04-15 15:03:00,
2013-04-15 11:08:00,60.2,52.6,29.75,SE,138,2.0,3.0,76,0.00,,---,0.00,VWS V14.01,2013-04-15 15:08:00,
2013-04-15 11:13:00,60.4,52.5,29.75,SE,146,0.0,5.0,75,0.00,,---,0.00,VWS V14.01,2013-04-15 15:13:00,
2013-04-15 11:18:00,60.5,52.5,29.75,ESE,122,1.0,3.0,75,0.00,,---,0.00,VWS V14.01,2013-04-15 15:18:00,
2013-04-15 11:23:00,60.8,52.8,29.75,SSE,167,0.0,3.0,75,0.00,,---,0.00,VWS V14.01,2013-04-15 15:23:00,
2013-04-15 11:28:00,61.1,53.1,29.75,SSE,150,0.0,4.0,75,0.00,,---,0.00,VWS V14.01,2013-04-15 15:28:00,
2013-04-15 11:33:00,61.3,53.0,29.75,SSE,160,1.0,5.0,74,0.00,,---,0.00,VWS V14.01,2013-04-15 15:33:00,
2013-04-15 11:38:00,61.5,53.2,29.76,ESE,103,1.0,6.0,74,0.00,,---,0.00,VWS V14.01,2013-04-15 15:38:00,
2013-04-15 11:43:00,61.7,53.3,29.76,SSW,198,0.0,6.0,74,0.00,,---,0.00,VWS V14.01,2013-04-15 15:43:00,
2013-04-15 11:48:00,61.6,53.2,29.75,SSW,213,1.0,9.0,74,0.00,,---,0.00,VWS V14.01,2013-04-15 15:48:00,
2013-04-15 11:53:00,61.8,53.4,29.75,SSW,206,0.0,3.0,74,0.00,,---,0.00,VWS V14.01,2013-04-15 15:53:00,
2013-04-15 11:58:00,62.0,53.3,29.75,SE,136,2.0,9.0,73,0.00,,---,0.00,VWS V14.01,2013-04-15 15:58:00,
2013-04-15 12:03:00,62.0,54.0,29.76,South,188,0.0,7.0,75,0.00,,---,0.00,VWS V14.01,2013-04-15 16:03:00,
2013-04-15 12:08:00,62.1,54.1,29.76,West,268,0.0,2.0,75,0.00,,---,0.00,VWS V14.01,2013-04-15 16:08:00,
2013-04-15 12:13:00,62.1,53.7,29.76,SSE,162,2.0,6.0,74,0.00,,---,0.00,VWS V14.01,2013-04-15 16:13:00,
2013-04-15 12:18:00,61.8,53.4,29.78,SSE,153,0.0,4.0,74,0.00,,---,0.00,VWS V14.01,2013-04-15 16:18:00,
2013-04-15 12:23:00,61.6,53.6,29.78,SE,136,1.0,5.0,75,0.00,,---,0.00,VWS V14.01,2013-04-15 16:23:00,
2013-04-15 12:28:00,61.4,53.4,29.78,WSW,248,1.0,5.0,75,0.00,,---,0.00,VWS V14.01,2013-04-15 16:28:00,
2013-04-15 12:33:00,61.4,53.8,29.78,SW,226,3.0,4.0,76,0.00,,---,0.00,VWS V14.01,2013-04-15 16:33:00,
2013-04-15 12:38:00,61.2,53.6,29.78,SW,227,0.0,4.0,76,0.00,,---,0.00,VWS V14.01,2013-04-15 16:38:00,
2013-04-15 12:43:00,61.1,53.5,29.78,South,179,0.0,6.0,76,0.00,,---,0.00,VWS V14.01,2013-04-15 16:43:00,
2013-04-15 12:48:00,61.2,53.9,29.78,SW,221,2.0,4.0,77,0.00,,---,0.00,VWS V14.01,2013-04-15 16:48:00,
2013-04-15 12:53:00,61.3,54.0,29.78,South,176,1.0,3.0,77,0.00,,---,0.00,VWS V14.01,2013-04-15 16:53:00,
2013-04-15 12:58:00,61.3,54.0,29.78,ESE,122,0.0,6.0,77,0.00,,---,0.00,VWS V14.01,2013-04-15 16:58:00,
2013-04-15 13:03:00,61.4,54.1,29.79,SSW,212,0.0,2.0,77,0.00,,---,0.00,VWS V14.01,2013-04-15 17:03:00,
2013-04-15 13:08:00,61.2,53.9,29.79,SE,132,0.0,6.0,77,0.00,,---,0.00,VWS V14.01,2013-04-15 17:08:00,
2013-04-15 13:13:00,61.2,53.9,29.79,SSW,206,1.0,4.0,77,0.00,,---,0.00,VWS V14.01,2013-04-15 17:13:00,
2013-04-15 13:18:00,61.2,53.9,29.78,SSW,206,0.0,3.0,77,0.00,,---,0.00,VWS V14.01,2013-04-15 17:18:00,
2013-04-15 13:21:00,61.2,54.3,29.78,SSW,206,0.0,1.0,78,0.00,,---,0.00,VWS V14.01,2013-04-15 17:21:00,
2013-04-15 13:25:00,61.3,54.4,29.78,WSW,246,0.0,4.0,78,0.00,,---,0.00,VWS V14.01,2013-04-15 17:25:00,
2013-04-15 13:30:00,61.5,54.6,29.78,SSW,211,0.0,2.0,78,0.00,,---,0.00,VWS V14.01,2013-04-15 17:30:00,
2013-04-15 13:35:00,61.7,54.8,29.77,SSE,152,1.0,2.0,78,0.00,,---,0.00,VWS V14.01,2013-04-15 17:35:00,
2013-04-15 13:40:00,61.9,55.0,29.77,ESE,119,3.0,4.0,78,0.00,,---,0.00,VWS V14.01,2013-04-15 17:40:00,
2013-04-15 13:45:00,62.0,54.7,29.77,ESE,122,3.0,3.0,77,0.00,,---,0.00,VWS V14.01,2013-04-15 17:45:00,
2013-04-15 13:50:00,61.9,54.6,29.77,ESE,117,0.0,2.0,77,0.00,,---,0.00,VWS V14.01,2013-04-15 17:50:00,
2013-04-15 13:55:00,61.9,55.0,29.77,SE,136,1.0,3.0,78,0.00,,---,0.00,VWS V14.01,2013-04-15 17:55:00,
2013-04-15 14:00:00,62.0,55.1,29.77,SSE,161,0.0,1.0,78,0.00,,---,0.00,VWS V14.01,2013-04-15 18:00:00,
2013-04-15 14:05:00,62.2,54.9,29.76,SSE,154,0.0,2.0,77,0.00,,---,0.00,VWS V14.01,2013-04-15 18:05:00,
2013-04-15 14:10:00,62.1,54.8,29.76,ESE,107,1.0,4.0,77,0.00,,---,0.00,VWS V14.01,2013-04-15 18:10:00,
2013-04-15 14:15:00,62.0,55.1,29.76,South,173,1.0,3.0,78,0.00,,---,0.00,VWS V14.01,2013-04-15 18:15:00,
2013-04-15 14:20:00,62.0,55.1,29.76,SSE,150,1.0,1.0,78,0.00,,---,0.00,VWS V14.01,2013-04-15 18:20:00,
2013-04-15 14:26:00,61.9,55.3,29.76,South,179,1.0,2.0,79,0.00,,---,0.00,VWS V14.01,2013-04-15 18:26:00,
2013-04-15 14:29:00,62.0,55.4,29.76,SE,143,2.0,2.0,79,0.00,,---,0.00,VWS V14.01,2013-04-15 18:29:00,
2013-04-15 14:34:00,61.9,55.3,29.76,SSW,208,1.0,1.0,79,0.00,,---,0.00,VWS V14.01,2013-04-15 18:34:00,
2013-04-15 14:39:00,61.8,55.2,29.76,SW,231,3.0,3.0,79,0.00,,---,0.00,VWS V14.01,2013-04-15 18:39:00,
2013-04-15 14:44:00,61.7,55.1,29.76,ESE,123,0.0,0.0,79,0.00,,---,0.00,VWS V14.01,2013-04-15 18:44:00,
2013-04-15 14:49:00,61.5,55.3,29.77,SE,126,0.0,0.0,80,0.00,,---,0.00,VWS V14.01,2013-04-15 18:49:00,
2013-04-15 14:54:00,61.4,55.2,29.77,SE,145,0.0,1.0,80,0.00,,---,0.00,VWS V14.01,2013-04-15 18:54:00,
2013-04-15 14:59:00,61.4,55.2,29.77,SW,216,0.0,0.0,80,0.00,,---,0.00,VWS V14.01,2013-04-15 18:59:00,
2013-04-15 15:04:00,61.4,55.2,29.76,SW,216,0.0,0.0,80,0.00,,---,0.00,VWS V14.01,2013-04-15 19:04:00,
2013-04-15 15:09:00,61.4,55.5,29.76,SSE,161,0.0,0.0,81,0.00,,---,0.00,VWS V14.01,2013-04-15 19:09:00,
2013-04-15 15:14:00,61.5,55.6,29.76,SSE,161,0.0,0.0,81,0.00,,---,0.00,VWS V14.01,2013-04-15 19:14:00,
2013-04-15 15:19:00,61.6,55.7,29.76,SSE,161,0.0,0.0,81,0.00,,---,0.00,VWS V14.01,2013-04-15 19:19:00,
2013-04-15 15:24:00,62.0,55.8,29.76,SE,140,1.0,2.0,80,0.00,,---,0.00,VWS V14.01,2013-04-15 19:24:00,
2013-04-15 15:29:00,62.4,56.2,29.76,SE,143,0.0,0.0,80,0.00,,---,0.00,VWS V14.01,2013-04-15 19:29:00,
2013-04-15 15:34:00,62.8,56.2,29.74,South,187,0.0,1.0,79,0.00,,---,0.00,VWS V14.01,2013-04-15 19:34:00,
2013-04-15 15:40:00,63.2,56.2,29.74,SSE,162,0.0,1.0,78,0.00,,---,0.00,VWS V14.01,2013-04-15 19:40:00,
2013-04-15 15:45:00,64.0,56.7,29.74,SE,143,0.0,1.0,77,0.00,,---,0.00,VWS V14.01,2013-04-15 19:45:00,
2013-04-15 15:50:00,64.6,56.9,29.75,WSW,243,1.0,3.0,76,0.00,,---,0.00,VWS V14.01,2013-04-15 19:50:00,
2013-04-15 15:55:00,64.5,56.8,29.75,SSW,200,0.0,1.0,76,0.00,,---,0.00,VWS V14.01,2013-04-15 19:55:00,
2013-04-15 15:57:00,64.3,56.6,29.75,WSW,252,1.0,6.0,76,0.00,,---,0.00,VWS V14.01,2013-04-15 19:57:00,
2013-04-15 15:58:00,64.2,56.8,29.75,WSW,243,0.0,6.0,77,0.00,,---,0.00,VWS V14.01,2013-04-15 19:58:00,
2013-04-15 16:02:00,63.7,56.4,29.75,SW,219,0.0,1.0,77,0.00,,---,0.00,VWS V14.01,2013-04-15 20:02:00,
2013-04-15 16:03:00,63.6,56.3,29.76,SW,217,0.0,1.0,77,0.00,,---,0.00,VWS V14.01,2013-04-15 20:03:00,
2013-04-15 16:08:00,63.0,56.0,29.76,SSW,194,0.0,1.0,78,0.00,,---,0.00,VWS V14.01,2013-04-15 20:08:00,
2013-04-15 16:13:00,62.7,56.1,29.76,SSE,167,0.0,2.0,79,0.00,,---,0.00,VWS V14.01,2013-04-15 20:13:00,
2013-04-15 16:18:00,62.5,55.9,29.76,SSE,167,0.0,1.0,79,0.00,,---,0.00,VWS V14.01,2013-04-15 20:18:00,
2013-04-15 16:23:00,62.5,56.2,29.76,South,172,0.0,2.0,80,0.00,,---,0.00,VWS V14.01,2013-04-15 20:23:00,
2013-04-15 16:28:00,62.6,56.3,29.76,South,172,0.0,2.0,80,0.00,,---,0.00,VWS V14.01,2013-04-15 20:28:00,
2013-04-15 16:33:00,62.8,56.5,29.75,South,172,0.0,1.0,80,0.00,,---,0.00,VWS V14.01,2013-04-15 20:33:00,
2013-04-15 16:38:00,63.0,56.7,29.75,South,172,0.0,0.0,80,0.00,,---,0.00,VWS V14.01,2013-04-15 20:38:00,
2013-04-15 16:43:00,63.2,56.6,29.75,South,172,0.0,1.0,79,0.00,,---,0.00,VWS V14.01,2013-04-15 20:43:00,
2013-04-15 16:48:00,63.4,56.8,29.75,South,172,0.0,1.0,79,0.00,,---,0.00,VWS V14.01,2013-04-15 20:48:00,
2013-04-15 16:53:00,63.2,56.6,29.75,South,172,0.0,1.0,79,0.00,,---,0.00,VWS V14.01,2013-04-15 20:53:00,
2013-04-15 16:58:00,63.0,56.4,29.75,South,172,0.0,1.0,79,0.00,,---,0.00,VWS V14.01,2013-04-15 20:58:00,
2013-04-15 17:03:00,62.7,56.5,29.76,SW,227,0.0,4.0,80,0.00,,---,0.00,VWS V14.01,2013-04-15 21:03:00,
2013-04-15 17:08:00,62.6,56.3,29.76,ESE,123,0.0,1.0,80,0.00,,---,0.00,VWS V14.01,2013-04-15 21:08:00,
2013-04-15 17:13:00,62.6,56.3,29.76,SE,130,0.0,1.0,80,0.00,,---,0.00,VWS V14.01,2013-04-15 21:13:00,
2013-04-15 17:18:00,62.6,56.7,29.76,SSE,150,1.0,2.0,81,0.00,,---,0.00,VWS V14.01,2013-04-15 21:18:00,
2013-04-15 17:23:00,62.5,56.6,29.76,South,177,1.0,2.0,81,0.00,,---,0.00,VWS V14.01,2013-04-15 21:23:00,
2013-04-15 17:28:00,62.5,56.6,29.76,South,177,0.0,1.0,81,0.00,,---,0.00,VWS V14.01,2013-04-15 21:28:00,
2013-04-15 17:33:00,62.4,56.8,29.76,South,177,0.0,1.0,82,0.00,,---,0.00,VWS V14.01,2013-04-15 21:33:00,
2013-04-15 17:38:00,62.3,56.7,29.76,South,177,0.0,1.0,82,0.00,,---,0.00,VWS V14.01,2013-04-15 21:38:00,
2013-04-15 17:43:00,62.2,56.6,29.76,South,177,0.0,0.0,82,0.00,,---,0.00,VWS V14.01,2013-04-15 21:43:00,
2013-04-15 17:48:00,62.1,56.5,29.77,South,172,1.0,1.0,82,0.00,,---,0.00,VWS V14.01,2013-04-15 21:48:00,
2013-04-15 17:53:00,62.1,56.5,29.77,SSE,162,0.0,1.0,82,0.00,,---,0.00,VWS V14.01,2013-04-15 21:53:00,
2013-04-15 17:58:00,62.0,56.8,29.77,SSE,165,0.0,2.0,83,0.00,,---,0.00,VWS V14.01,2013-04-15 21:58:00,
2013-04-15 18:03:00,61.9,56.7,29.77,SSE,165,0.0,1.0,83,0.00,,---,0.00,VWS V14.01,2013-04-15 22:03:00,
2013-04-15 18:08:00,61.7,56.8,29.77,SSE,168,0.0,1.0,84,0.00,,---,0.00,VWS V14.01,2013-04-15 22:08:00,
2013-04-15 18:13:00,61.5,57.0,29.77,SSE,168,0.0,0.0,85,0.00,,---,0.00,VWS V14.01,2013-04-15 22:13:00,
2013-04-15 18:18:00,61.2,57.0,29.76,SSE,168,0.0,0.0,86,0.00,,---,0.00,VWS V14.01,2013-04-15 22:18:00,
2013-04-15 18:23:00,61.0,57.1,29.76,SSE,168,0.0,1.0,87,0.00,,---,0.00,VWS V14.01,2013-04-15 22:23:00,
2013-04-15 18:28:00,60.7,57.1,29.76,SSE,168,0.0,0.0,88,0.00,,---,0.00,VWS V14.01,2013-04-15 22:28:00,
2013-04-15 18:33:00,60.6,57.0,29.77,SSE,168,0.0,0.0,88,0.01,,---,0.01,VWS V14.01,2013-04-15 22:33:00,
2013-04-15 18:38:00,60.4,57.2,29.77,SSE,168,0.0,0.0,89,0.01,,---,0.01,VWS V14.01,2013-04-15 22:38:00,
2013-04-15 18:43:00,60.2,57.3,29.77,SSE,168,0.0,0.0,90,0.01,,---,0.01,VWS V14.01,2013-04-15 22:43:00,
2013-04-15 18:48:00,60.2,57.3,29.77,SSE,168,0.0,0.0,90,0.01,,---,0.01,VWS V14.01,2013-04-15 22:48:00,
2013-04-15 18:53:00,60.2,57.3,29.76,SSE,168,0.0,1.0,90,0.01,,---,0.01,VWS V14.01,2013-04-15 22:53:00,
2013-04-15 18:57:00,60.0,57.4,29.76,SSE,168,0.0,0.0,91,0.02,,---,0.02,VWS V14.01,2013-04-15 22:57:00,
2013-04-15 19:02:00,59.9,57.3,29.76,SSE,168,0.0,1.0,91,0.02,,---,0.02,VWS V14.01,2013-04-15 23:02:00,
2013-04-15 19:07:00,59.7,57.4,29.77,SSE,168,0.0,0.0,92,0.03,,---,0.03,VWS V14.01,2013-04-15 23:07:00,
2013-04-15 19:12:00,59.4,57.1,29.77,SSE,168,0.0,0.0,92,0.04,,---,0.04,VWS V14.01,2013-04-15 23:12:00,
2013-04-15 19:17:00,58.9,56.9,29.77,SSE,168,0.0,0.0,93,0.05,,---,0.05,VWS V14.01,2013-04-15 23:17:00,
2013-04-15 19:22:00,58.8,57.1,29.77,SSE,168,0.0,0.0,94,0.05,,---,0.05,VWS V14.01,2013-04-15 23:22:00,
2013-04-15 19:27:00,58.7,57.3,29.77,SSE,168,0.0,0.0,95,0.06,,---,0.06,VWS V14.01,2013-04-15 23:27:00,
2013-04-15 19:32:00,58.5,57.1,29.77,SSE,168,0.0,0.0,95,0.06,,---,0.06,VWS V14.01,2013-04-15 23:32:00,
2013-04-15 19:37:00,58.5,57.1,29.77,SSE,168,0.0,0.0,95,0.05,,---,0.06,VWS V14.01,2013-04-15 23:37:00,
2013-04-15 19:42:00,58.5,57.4,29.77,SSE,168,0.0,0.0,96,0.05,,---,0.06,VWS V14.01,2013-04-15 23:42:00,
2013-04-15 19:47:00,58.4,57.0,29.77,SSE,168,0.0,0.0,95,0.05,,---,0.06,VWS V14.01,2013-04-15 23:47:00,
2013-04-15 19:52:00,58.3,57.2,29.77,SSE,168,0.0,0.0,96,0.05,,---,0.06,VWS V14.01,2013-04-15 23:52:00,
2013-04-15 19:57:00,58.3,57.2,29.77,SSE,168,0.0,0.0,96,0.05,,---,0.06,VWS V14.01,2013-04-15 23:57:00,
2013-04-15 20:02:00,58.3,57.2,29.77,SSE,168,0.0,0.0,96,0.04,,---,0.06,VWS V14.01,2013-04-16 00:02:00,
2013-04-15 20:07:00,58.2,57.1,29.78,SSE,168,0.0,0.0,96,0.05,,---,0.07,VWS V14.01,2013-04-16 00:07:00,
2013-04-15 20:12:00,58.1,57.3,29.78,SSE,168,0.0,0.0,97,0.05,,---,0.08,VWS V14.01,2013-04-16 00:12:00,
2013-04-15 20:17:00,57.9,56.8,29.78,SSE,168,0.0,0.0,96,0.04,,---,0.08,VWS V14.01,2013-04-16 00:17:00,
2013-04-15 20:22:00,57.8,57.0,29.78,SSE,168,0.0,0.0,97,0.04,,---,0.09,VWS V14.01,2013-04-16 00:22:00,
2013-04-15 20:27:00,57.7,56.9,29.78,SSE,168,0.0,0.0,97,0.05,,---,0.10,VWS V14.01,2013-04-16 00:27:00,
2013-04-15 20:32:00,57.7,56.9,29.78,SSE,168,0.0,0.0,97,0.05,,---,0.11,VWS V14.01,2013-04-16 00:32:00,
2013-04-15 20:37:00,57.7,56.9,29.77,SSE,168,0.0,0.0,97,0.06,,---,0.12,VWS V14.01,2013-04-16 00:37:00,
2013-04-15 20:42:00,57.6,56.8,29.77,SSE,168,0.0,0.0,97,0.06,,---,0.12,VWS V14.01,2013-04-16 00:42:00,
2013-04-15 20:47:00,57.5,56.7,29.77,SSE,168,0.0,0.0,97,0.06,,---,0.12,VWS V14.01,2013-04-16 00:47:00,
2013-04-15 20:52:00,57.5,56.7,29.78,SSE,168,0.0,0.0,97,0.07,,---,0.13,VWS V14.01,2013-04-16 00:52:00,
2013-04-15 20:57:00,57.5,56.7,29.78,SSE,168,0.0,0.0,97,0.08,,---,0.14,VWS V14.01,2013-04-16 00:57:00,
2013-04-15 21:02:00,57.6,56.8,29.78,SSE,168,0.0,0.0,97,0.08,,---,0.14,VWS V14.01,2013-04-16 01:02:00,
2013-04-15 21:07:00,57.7,57.1,29.77,SSE,168,0.0,0.0,98,0.07,,---,0.14,VWS V14.01,2013-04-16 01:07:00,
2013-04-15 21:12:00,57.5,56.9,29.77,SSE,168,0.0,0.0,98,0.06,,---,0.14,VWS V14.01,2013-04-16 01:12:00,
2013-04-15 21:17:00,57.4,56.6,29.77,SSE,168,0.0,0.0,97,0.06,,---,0.14,VWS V14.01,2013-04-16 01:17:00,
2013-04-15 21:22:00,57.4,56.8,29.77,SSE,168,1.0,2.0,98,0.06,,---,0.14,VWS V14.01,2013-04-16 01:22:00,
2013-04-15 21:27:00,57.1,56.5,29.77,SSE,168,0.0,1.0,98,0.05,,---,0.14,VWS V14.01,2013-04-16 01:27:00,
2013-04-15 21:32:00,57.1,56.5,29.77,SSE,168,0.0,0.0,98,0.04,,---,0.14,VWS V14.01,2013-04-16 01:32:00,
2013-04-15 21:37:00,57.2,56.6,29.77,SSE,168,1.0,1.0,98,0.03,,---,0.14,VWS V14.01,2013-04-16 01:37:00,
2013-04-15 21:42:00,57.3,56.7,29.77,SSE,168,0.0,1.0,98,0.03,,---,0.15,VWS V14.01,2013-04-16 01:42:00,
2013-04-15 21:47:00,57.5,56.9,29.77,SSE,168,0.0,0.0,98,0.03,,---,0.15,VWS V14.01,2013-04-16 01:47:00,
2013-04-15 21:52:00,57.5,56.9,29.77,SSE,168,0.0,0.0,98,0.03,,---,0.15,VWS V14.01,2013-04-16 01:52:00,
2013-04-15 21:57:00,57.5,56.9,29.77,SSE,168,0.0,0.0,98,0.01,,---,0.15,VWS V14.01,2013-04-16 01:57:00,
2013-04-15 22:02:00,57.4,56.8,29.77,SSE,168,0.0,0.0,98,0.01,,---,0.15,VWS V14.01,2013-04-16 02:02:00,
2013-04-15 22:07:00,57.3,56.7,29.77,WNW,286,3.0,3.0,98,0.01,,---,0.15,VWS V14.01,2013-04-16 02:07:00,
2013-04-15 22:12:00,55.5,54.7,29.77,WNW,283,3.0,4.0,97,0.01,,---,0.15,VWS V14.01,2013-04-16 02:12:00,
2013-04-15 22:17:00,54.6,53.8,29.77,NW,311,0.0,3.0,97,0.01,,---,0.15,VWS V14.01,2013-04-16 02:17:00,
2013-04-15 22:22:00,54.1,53.3,29.78,WNW,290,0.0,3.0,97,0.01,,---,0.15,VWS V14.01,2013-04-16 02:22:00,
2013-04-15 22:27:00,53.8,53.0,29.78,WNW,293,0.0,1.0,97,0.01,,---,0.15,VWS V14.01,2013-04-16 02:27:00,
2013-04-15 22:32:00,53.6,52.8,29.78,WNW,293,1.0,1.0,97,0.02,,---,0.16,VWS V14.01,2013-04-16 02:32:00,
2013-04-15 22:37:00,53.6,53.0,29.78,WNW,288,0.0,3.0,98,0.02,,---,0.16,VWS V14.01,2013-04-16 02:37:00,
2013-04-15 22:42:00,53.6,53.0,29.78,WNW,288,2.0,3.0,98,0.02,,---,0.16,VWS V14.01,2013-04-16 02:42:00,
2013-04-15 22:47:00,53.4,52.8,29.78,WSW,245,0.0,7.0,98,0.01,,---,0.16,VWS V14.01,2013-04-16 02:47:00,
2013-04-15 22:52:00,53.1,52.3,29.81,WNW,286,1.0,5.0,97,0.01,,---,0.16,VWS V14.01,2013-04-16 02:52:00,
2013-04-15 22:57:00,52.6,51.8,29.81,West,271,0.0,4.0,97,0.01,,---,0.16,VWS V14.01,2013-04-16 02:57:00,
2013-04-15 23:02:00,52.1,51.3,29.81,WNW,295,3.0,7.0,97,0.02,,---,0.17,VWS V14.01,2013-04-16 03:02:00,
2013-04-15 23:07:00,51.5,50.7,29.81,WNW,302,4.0,9.0,97,0.02,,---,0.17,VWS V14.01,2013-04-16 03:07:00,
2013-04-15 23:12:00,50.6,49.5,29.81,WNW,299,1.0,5.0,96,0.02,,---,0.17,VWS V14.01,2013-04-16 03:12:00,
2013-04-15 23:17:00,50.0,48.9,29.81,WNW,293,3.0,10.0,96,0.02,,---,0.17,VWS V14.01,2013-04-16 03:17:00,
2013-04-15 23:22:00,49.4,48.3,29.82,NW,306,3.0,6.0,96,0.02,,---,0.17,VWS V14.01,2013-04-16 03:22:00,
2013-04-15 23:27:00,49.0,47.9,29.82,WNW,296,3.0,4.0,96,0.02,,---,0.17,VWS V14.01,2013-04-16 03:27:00,
2013-04-15 23:32:00,48.7,47.6,29.82,WNW,290,0.0,4.0,96,0.02,,---,0.17,VWS V14.01,2013-04-16 03:32:00,
2013-04-15 23:37:00,48.2,46.8,29.81,North,1,6.0,6.0,95,0.01,,---,0.17,VWS V14.01,2013-04-16 03:37:00,
2013-04-15 23:42:00,47.8,46.4,29.81,NW,323,0.0,6.0,95,0.01,,---,0.17,VWS V14.01,2013-04-16 03:42:00,
2013-04-15 23:47:00,47.6,46.5,29.81,West,274,0.0,3.0,96,0.01,,---,0.17,VWS V14.01,2013-04-16 03:47:00,
2013-04-15 23:52:00,47.4,46.3,29.82,NNW,333,1.0,4.0,96,0.01,,---,0.17,VWS V14.01,2013-04-16 03:52:00,
2013-04-15 23:57:00,47.2,45.8,29.82,West,279,3.0,4.0,95,0.01,,---,0.17,VWS V14.01,2013-04-16 03:57:00,